Time;durP1;ratioP1;P1;durP2;ratioP2;P2;SDS_P1;SDS_P2;PMS_P1;PMS_P2;Temp;Humidity;BMP_temperature;BMP_pressure;BME280_temperature;BME280_humidity;BME280_pressure;Samples;Min_cycle;Max_cycle;Signal;HPM_P1;HPM_P2
2022/06/13 00:01:19;;;;;;;9.23;8.25;;;;;;;20.69;62.55;99385.81;1670885;83;21522;-65
2022/06/13 00:03:47;;;;;;;12.25;8.85;;;;;;;20.72;62.54;99388.69;1669448;84;21479;-65
2022/06/13 00:06:15;;;;;;;13.03;9.28;;;;;;;20.71;62.79;99382.52;1682979;84;21517;-65
2022/06/13 00:08:42;;;;;;;10.93;9.33;;;;;;;20.68;62.93;99381.47;1719402;81;21585;-65
2022/06/13 00:11:11;;;;;;;11.75;9.83;;;;;;;20.67;62.99;99385.61;1722186;81;21734;-65
2022/06/13 00:13:38;;;;;;;12.98;9.78;;;;;;;20.65;62.92;99387.58;1684780;84;21493;-65
2022/06/13 00:16:05;;;;;;;15.83;11.28;;;;;;;20.56;63.15;99391.36;1718561;82;21479;-65
2022/06/13 00:18:33;;;;;;;11.70;9.93;;;;;;;20.52;63.20;99388.61;1705868;81;21683;-65
2022/06/13 00:21:02;;;;;;;13.38;10.58;;;;;;;20.48;63.46;99387.20;1692080;82;21577;-67
2022/06/13 00:23:28;;;;;;;13.83;10.20;;;;;;;20.47;63.79;99381.48;1720936;80;21751;-65
2022/06/13 00:25:55;;;;;;;11.90;10.03;;;;;;;20.49;63.92;99379.53;1713235;80;21482;-66
2022/06/13 00:28:22;;;;;;;13.13;11.47;;;;;;;20.51;63.82;99385.61;1729163;81;20955;-66
2022/06/13 00:30:49;;;;;;;15.48;10.85;;;;;;;20.52;63.88;99386.45;1731004;80;21349;-66
2022/06/13 00:33:15;;;;;;;13.32;11.55;;;;;;;20.52;63.76;99387.28;1721478;80;21025;-66
2022/06/13 00:35:42;;;;;;;15.23;11.57;;;;;;;20.45;63.75;99383.95;1718456;81;21813;-66
2022/06/13 00:38:10;;;;;;;14.85;11.30;;;;;;;20.41;63.72;99384.21;1714729;80;21545;-66
2022/06/13 00:40:36;;;;;;;;;;;;;;;20.41;64.04;99380.70;1718549;80;21526;-66
2022/06/13 00:43:05;;;;;;;12.50;10.18;;;;;;;20.41;64.32;99374.86;1727672;81;20406;-66
2022/06/13 00:45:34;;;;;;;13.93;11.00;;;;;;;20.41;64.18;99376.70;1722482;81;21605;-66
2022/06/13 00:48:00;;;;;;;13.20;11.20;;;;;;;20.40;64.10;99379.03;1729107;80;21729;-66
2022/06/13 00:50:41;;;;;;;16.82;11.43;;;;;;;20.39;64.12;99378.16;1729578;82;21435;-65
2022/06/13 00:53:16;;;;;;;15.55;11.03;;;;;;;20.37;63.98;99374.78;1724865;81;20989;-66
2022/06/13 00:56:02;;;;;;;12.15;10.78;;;;;;;20.35;63.96;99379.42;1716045;81;21495;-65
2022/06/13 00:58:31;;;;;;;16.52;10.78;;;;;;;20.37;63.99;99381.96;1736985;80;21541;-65
2022/06/13 01:00:58;;;;;;;13.22;10.40;;;;;;;20.37;63.93;99376.13;1726245;81;21969;-65
2022/06/13 01:03:28;;;;;;;15.13;10.10;;;;;;;20.35;64.08;99379.92;1717752;80;21088;-65
2022/06/13 01:05:57;;;;;;;13.68;11.18;;;;;;;20.34;64.25;99377.75;1716355;82;20950;-65
2022/06/13 01:08:25;;;;;;;13.78;10.78;;;;;;;20.34;64.27;99380.88;1719527;80;21551;-64
2022/06/13 01:14:09;;;;;;;15.13;9.75;;;;;;;20.37;64.18;99384.63;1711028;81;21851;-65
2022/06/13 01:17:01;;;;;;;13.30;10.25;;;;;;;20.33;64.24;99385.88;1716306;81;21433;-65
2022/06/13 01:20:02;;;;;;;14.68;10.43;;;;;;;20.32;64.43;99385.52;1710808;82;21548;-65
2022/06/13 01:23:09;;;;;;;17.15;10.60;;;;;;;20.34;64.35;99382.22;1716911;81;21396;-65
2022/06/13 01:25:42;;;;;;;13.20;10.28;;;;;;;20.29;64.61;99385.30;1731934;80;21521;-66
2022/06/13 01:28:33;;;;;;;14.75;10.30;;;;;;;20.26;64.64;99384.23;1724526;81;21589;-65
2022/06/13 01:31:22;;;;;;;16.27;8.90;;;;;;;20.28;64.70;99384.94;1719425;81;21503;-65
2022/06/13 01:34:13;;;;;;;15.15;9.13;;;;;;;20.26;64.76;99382.89;1723967;81;21546;-64
2022/06/13 01:37:06;;;;;;;14.13;9.25;;;;;;;20.20;64.97;99380.77;1720796;80;21092;-65
2022/06/13 01:39:48;;;;;;;10.08;8.98;;;;;;;20.17;64.93;99381.02;1709989;81;21440;-65
2022/06/13 01:42:21;;;;;;;10.55;9.48;;;;;;;20.09;65.23;99379.52;1722431;81;21840;-65
2022/06/13 01:45:06;;;;;;;10.60;8.85;;;;;;;20.03;65.37;99381.73;1680298;84;21637;-65
2022/06/13 01:48:04;;;;;;;10.28;9.25;;;;;;;20.01;65.43;99384.19;1729483;82;21524;-65
2022/06/13 01:50:39;;;;;;;10.35;9.25;;;;;;;19.97;65.62;99386.27;1719024;80;21466;-65
2022/06/13 01:53:10;;;;;;;10.95;8.83;;;;;;;19.97;65.78;99386.27;1687674;84;21423;-65
2022/06/13 01:55:45;;;;;;;10.63;8.60;;;;;;;20.02;65.87;99388.53;1686836;82;21466;-65
2022/06/13 01:58:26;;;;;;;11.85;8.13;;;;;;;20.09;65.74;99388.36;1715860;80;21669;-64
2022/06/13 02:01:07;;;;;;;9.80;8.73;;;;;;;20.10;65.56;99387.39;1726561;81;21007;-65
2022/06/13 02:03:44;;;;;;;13.25;8.58;;;;;;;20.06;65.50;99393.98;1715798;80;21540;-65
2022/06/13 02:06:24;;;;;;;10.25;8.13;;;;;;;20.02;65.38;99388.53;1712523;81;21496;-65
2022/06/13 02:09:07;;;;;;;11.15;8.65;;;;;;;19.97;65.86;99384.10;1721165;81;21818;-65
2022/06/13 02:11:53;;;;;;;9.68;8.08;;;;;;;19.98;65.92;99379.94;1723485;82;21436;-66
2022/06/13 02:14:38;;;;;;;9.48;8.55;;;;;;;19.98;65.89;99383.94;1678109;84;21609;-66
2022/06/13 02:17:13;;;;;;;9.25;8.38;;;;;;;19.94;65.91;99385.19;1685342;83;21646;-66
2022/06/13 02:19:50;;;;;;;8.90;7.83;;;;;;;19.91;65.87;99389.94;1666198;84;21546;-68
2022/06/13 02:22:24;;;;;;;;;;;;;;;19.86;65.86;99393.02;1677368;83;21822;-65
2022/06/13 02:24:59;;;;;;;8.18;7.15;;;;;;;19.87;66.45;99387.18;1679705;84;20446;-65
2022/06/13 02:27:31;;;;;;;10.78;7.47;;;;;;;19.94;66.07;99391.02;1670574;84;21624;-66
2022/06/13 02:29:58;;;;;;;14.03;7.67;;;;;;;19.98;65.87;99389.77;1711271;81;21604;-66
2022/06/13 02:32:35;;;;;;;9.73;8.00;;;;;;;19.91;66.10;99391.27;1718482;80;21148;-67
2022/06/13 02:35:11;;;;;;;9.83;8.80;;;;;;;19.86;66.45;99390.34;1731634;81;21848;-65
2022/06/13 02:37:49;;;;;;;8.45;7.60;;;;;;;19.81;66.42;99390.72;1722535;80;21565;-65
2022/06/13 02:40:27;;;;;;;8.48;7.50;;;;;;;19.77;67.05;99395.97;1688402;82;21566;-65
2022/06/13 02:43:05;;;;;;;13.93;8.03;;;;;;;19.81;67.32;99401.89;1682664;83;21573;-65
2022/06/13 02:45:37;;;;;;;11.85;7.03;;;;;;;19.88;67.32;99399.56;1692894;82;21434;-64
2022/06/13 02:48:25;;;;;;;10.05;7.17;;;;;;;19.93;67.03;99397.32;1734376;80;21875;-66
2022/06/13 02:51:18;;;;;;;9.20;7.97;;;;;;;19.94;67.02;99401.70;1745355;80;21033;-65
2022/06/13 02:54:17;;;;;;;9.80;7.30;;;;;;;19.94;66.80;99401.20;1731683;80;21451;-65
2022/06/13 02:57:23;;;;;;;12.15;8.08;;;;;;;19.99;66.97;99400.82;1727247;80;21438;-64
2022/06/13 03:00:14;;;;;;;9.10;7.78;;;;;;;20.04;67.00;99406.58;1698006;83;21822;-67
2022/06/13 03:02:52;;;;;;;8.65;7.75;;;;;;;20.13;66.99;99409.80;1694259;83;21851;-64
2022/06/13 03:05:39;;;;;;;10.38;7.87;;;;;;;20.16;66.91;99410.04;1686078;82;21556;-65
2022/06/13 03:08:46;;;;;;;8.13;7.25;;;;;;;20.15;66.96;99407.84;1701429;82;21463;-65
2022/06/13 03:11:34;;;;;;;9.43;7.47;;;;;;;20.19;67.07;99402.62;1699299;82;21514;-65
2022/06/13 03:14:30;;;;;;;7.53;6.83;;;;;;;20.31;66.97;99403.86;1704395;82;21610;-65
2022/06/13 03:17:05;;;;;;;8.00;7.17;;;;;;;20.36;66.93;99406.48;1696673;82;22065;-61
2022/06/13 03:19:43;;;;;;;8.70;7.30;;;;;;;20.38;66.68;99404.52;1699950;83;21407;-63
2022/06/13 03:22:34;;;;;;;9.40;7.87;;;;;;;20.41;66.75;99404.23;1691028;83;21075;-61
2022/06/13 03:25:14;;;;;;;8.78;6.60;;;;;;;20.47;66.66;99413.53;1698703;82;21584;-61
2022/06/13 03:27:59;;;;;;;8.28;7.42;;;;;;;20.55;66.82;99410.19;1695204;83;21546;-61
2022/06/13 03:30:30;;;;;;;7.95;6.97;;;;;;;20.65;66.83;99415.63;1696691;82;21882;-62
2022/06/13 03:35:47;;;;;;;7.50;6.78;;;;;;;20.83;67.07;99420.64;1667100;84;21480;-61
2022/06/13 03:38:19;;;;;;;9.00;7.08;;;;;;;20.91;66.80;99419.48;1674664;82;21609;-61
2022/06/13 03:40:50;;;;;;;8.25;6.92;;;;;;;20.97;66.57;99412.24;1706627;82;21443;-62
2022/06/13 03:43:36;;;;;;;8.88;6.47;;;;;;;21.05;66.44;99414.22;1696661;82;21741;-61
2022/06/13 03:46:37;;;;;;;10.58;6.30;;;;;;;21.13;66.67;99409.52;1701268;82;21565;-62
2022/06/13 03:49:14;;;;;;;7.60;6.90;;;;;;;21.28;66.64;99407.28;1714056;82;21569;-61
2022/06/13 03:51:44;;;;;;;8.55;6.47;;;;;;;21.45;66.22;99405.77;1704477;82;21602;-62
2022/06/13 03:54:24;;;;;;;8.80;7.05;;;;;;;21.55;66.04;99402.61;1696176;82;21672;-62
2022/06/13 03:57:11;;;;;;;9.75;7.00;;;;;;;21.66;65.27;99405.14;1702524;82;22090;-62
2022/06/13 03:59:48;;;;;;;;;;;;;;;21.76;64.63;99415.32;1702589;82;21439;-63
2022/06/13 04:02:17;;;;;;;8.23;7.47;;;;;;;21.83;64.71;99408.92;1681204;82;20463;-63
2022/06/13 04:04:47;;;;;;;9.48;7.05;;;;;;;21.90;64.02;99416.70;1700328;82;21511;-64
2022/06/13 04:07:14;;;;;;;11.22;6.58;;;;;;;21.95;64.04;99413.10;1691426;82;21512;-63
2022/06/13 04:09:54;;;;;;;7.97;7.03;;;;;;;22.02;63.79;99413.38;1703368;82;21483;-64
2022/06/13 04:12:52;;;;;;;8.23;7.42;;;;;;;22.10;63.70;99416.17;1707919;82;21069;-62
2022/06/13 04:15:54;;;;;;;7.83;7.03;;;;;;;22.19;63.51;99413.59;1697287;82;21072;-61
2022/06/13 04:18:48;;;;;;;10.75;7.00;;;;;;;22.23;63.20;99417.70;1701431;82;21061;-60
2022/06/13 04:21:50;;;;;;;9.68;7.47;;;;;;;22.25;63.33;99419.73;1708399;82;20942;-60
2022/06/13 04:24:48;;;;;;;8.40;7.47;;;;;;;22.30;62.93;99417.47;1678259;84;21812;-60
2022/06/13 04:27:28;;;;;;;7.20;6.55;;;;;;;22.37;62.72;99422.59;1677224;83;21594;-60
2022/06/13 04:30:14;;;;;;;8.83;6.62;;;;;;;22.48;62.48;99418.89;1686932;83;21463;-61
2022/06/13 04:32:54;;;;;;;8.45;6.40;;;;;;;22.59;62.39;99418.70;1682632;83;21448;-62
2022/06/13 04:35:20;;;;;;;10.32;7.53;;;;;;;22.65;62.13;99419.94;1685744;83;21488;-59
2022/06/13 04:37:48;;;;;;;8.88;6.58;;;;;;;22.70;62.43;99423.03;1684531;84;21556;-56
2022/06/13 04:40:22;;;;;;;8.58;6.62;;;;;;;22.73;62.71;99421.37;1677665;84;21388;-57
2022/06/13 04:42:50;;;;;;;8.93;7.12;;;;;;;22.79;62.87;99422.11;1678696;83;21645;-58
2022/06/13 04:45:29;;;;;;;8.98;7.67;;;;;;;22.89;62.48;99419.39;1683842;83;21483;-58
2022/06/13 04:47:56;;;;;;;9.35;6.70;;;;;;;23.01;62.35;99422.70;1681581;83;21527;-58
2022/06/13 04:50:37;;;;;;;;;;;;;;;23.10;62.33;99417.30;1670985;83;21883;-58
2022/06/13 04:53:06;;;;;;;9.25;6.83;;;;;;;23.18;62.15;99418.39;1687114;84;20411;-58
2022/06/13 04:55:43;;;;;;;7.10;6.50;;;;;;;23.25;61.74;99414.11;1670568;83;21499;-57
2022/06/13 04:58:29;;;;;;;10.25;5.55;;;;;;;23.33;61.85;99417.69;1671874;83;21571;-60
2022/06/13 05:01:12;;;;;;;6.80;5.60;;;;;;;23.44;61.60;99419.30;1665914;84;21445;-60
2022/06/13 05:03:43;;;;;;;8.73;5.62;;;;;;;23.55;61.37;99420.92;1702580;80;21699;-58
2022/06/13 05:06:33;;;;;;;5.92;5.33;;;;;;;23.63;61.03;99422.83;1728941;82;21520;-61
2022/06/13 05:09:10;;;;;;;6.65;5.08;;;;;;;23.78;61.23;99430.66;1729560;80;21524;-59
2022/06/13 05:12:04;;;;;;;7.45;5.28;;;;;;;23.88;60.95;99424.75;1730362;80;21462;-60
2022/06/13 05:14:57;;;;;;;9.25;4.75;;;;;;;24.02;60.48;99429.20;1696577;82;21573;-59
2022/06/13 05:17:38;;;;;;;9.15;5.45;;;;;;;24.15;60.15;99433.65;1692951;83;21764;-60
2022/06/13 05:20:33;;;;;;;5.33;4.85;;;;;;;24.36;59.26;99435.95;1739010;80;21423;-59
2022/06/13 05:23:20;;;;;;;6.12;4.87;;;;;;;24.36;59.26;99435.95;1722031;81;21555;-59
2022/06/13 05:25:54;;;;;;;11.05;5.30;;;;;;;24.46;58.74;99441.20;1731331;80;21487;-58
2022/06/13 05:28:24;;;;;;;6.15;5.55;;;;;;;24.56;58.49;99443.80;1689384;83;21565;-59
2022/06/13 05:30:53;;;;;;;5.62;4.75;;;;;;;24.61;58.32;99446.86;1693945;83;21867;-59
2022/06/13 05:33:24;;;;;;;5.40;4.90;;;;;;;24.67;56.83;99444.34;1700314;83;21549;-58
2022/06/13 05:35:53;;;;;;;10.53;5.03;;;;;;;24.72;56.39;99444.39;1736619;80;21477;-61
2022/06/13 05:38:31;;;;;;;5.30;4.80;;;;;;;24.81;55.99;99450.14;1731196;80;21407;-59
2022/06/13 05:40:58;;;;;;;5.20;4.80;;;;;;;24.88;55.98;99447.12;1724691;80;20999;-60
2022/06/13 05:43:24;;;;;;;6.25;4.45;;;;;;;24.88;55.98;99447.12;1683724;83;21982;-59
2022/06/13 05:45:51;;;;;;;5.40;4.95;;;;;;;25.00;55.91;99442.31;1733180;80;21463;-58
2022/06/13 05:48:20;;;;;;;4.53;4.00;;;;;;;25.11;55.06;99446.52;1732950;80;21542;-59
2022/06/13 05:50:47;;;;;;;6.37;5.10;;;;;;;25.20;55.62;99445.53;1677156;84;20962;-59
2022/06/13 05:53:20;;;;;;;5.10;4.28;;;;;;;25.28;55.08;99436.19;1673812;84;21518;-59
2022/06/13 05:55:46;;;;;;;7.60;5.50;;;;;;;25.39;54.65;99438.56;1728583;80;21858;-60
2022/06/13 05:58:15;;;;;;;;;;;;;;;25.50;54.37;99441.92;1731631;80;21641;-59
2022/06/13 06:00:46;;;;;;;5.53;4.50;;;;;;;25.58;53.09;99441.91;1729300;80;20134;-59
2022/06/13 06:03:15;;;;;;;6.40;4.60;;;;;;;25.59;53.50;99447.14;1717657;80;21554;-59
2022/06/13 06:05:42;;;;;;;4.33;3.85;;;;;;;25.64;53.00;99434.54;1724354;80;21530;-60
2022/06/13 06:08:19;;;;;;;5.62;4.50;;;;;;;25.70;52.59;99439.75;1718429;80;21758;-58
2022/06/13 06:10:47;;;;;;;6.05;4.78;;;;;;;25.81;52.22;99436.73;1722698;80;21590;-59
2022/06/13 06:13:15;;;;;;;5.67;4.33;;;;;;;25.92;52.17;99439.11;1722637;80;21491;-59
2022/06/13 06:15:42;;;;;;;4.75;4.35;;;;;;;26.03;51.55;99430.67;1712404;80;21483;-59
2022/06/13 06:18:09;;;;;;;4.50;4.15;;;;;;;26.07;51.13;99437.05;1716110;81;21435;-59
2022/06/13 06:20:36;;;;;;;6.72;4.25;;;;;;;26.13;50.29;99431.83;1722116;80;21784;-59
2022/06/13 06:23:04;;;;;;;4.00;3.70;;;;;;;26.17;49.44;99437.20;1733171;80;21495;-59
2022/06/13 06:25:31;;;;;;;5.55;4.22;;;;;;;26.21;49.47;99435.02;1724029;80;21802;-59
2022/06/13 06:27:57;;;;;;;4.75;3.83;;;;;;;26.31;49.00;99432.95;1726555;80;21516;-59
2022/06/13 06:30:27;;;;;;;4.20;3.50;;;;;;;26.38;48.63;99431.77;1733989;80;21474;-59
2022/06/13 06:32:57;;;;;;;3.80;3.50;;;;;;;26.47;48.12;99433.95;1721075;80;21514;-59
2022/06/13 06:35:25;;;;;;;7.17;4.00;;;;;;;26.52;48.44;99427.50;1674264;84;21431;-59
2022/06/13 06:37:53;;;;;;;4.00;3.60;;;;;;;26.54;48.37;99426.82;1725543;80;21058;-59
2022/06/13 06:40:21;;;;;;;3.77;3.47;;;;;;;26.58;48.37;99421.44;1731560;80;21545;-60
2022/06/13 06:42:48;;;;;;;9.70;4.20;;;;;;;26.65;48.08;99412.99;1734212;80;21577;-60
2022/06/13 06:45:14;;;;;;;4.50;4.10;;;;;;;26.83;47.78;99415.97;1728796;80;21761;-58
2022/06/13 06:47:42;;;;;;;4.35;3.50;;;;;;;26.92;47.61;99418.44;1728264;80;21492;-58
2022/06/13 06:50:16;;;;;;;8.40;4.00;;;;;;;27.02;47.66;99410.64;1724374;80;21589;-58
2022/06/13 06:52:43;;;;;;;5.33;3.40;;;;;;;27.04;47.33;99406.73;1729144;80;21486;-59
2022/06/13 07:01:53;;;;;;;3.90;3.60;;;;;;;26.53;47.29;99417.07;1787072;79;23130;-59
2022/06/13 07:04:20;;;;;;;3.45;3.25;;;;;;;26.98;45.25;99406.10;1764978;80;21104;-59
2022/06/13 07:06:47;;;;;;;5.28;3.20;;;;;;;27.00;45.07;99416.20;1768230;80;21797;-59
2022/06/13 07:09:13;;;;;;;5.28;3.35;;;;;;;27.00;44.52;99409.46;1765693;80;21569;-59
2022/06/13 07:11:55;;;;;;;6.28;3.27;;;;;;;27.11;44.55;99413.10;1753815;80;21430;-60
2022/06/13 07:14:32;;;;;;;6.50;3.55;;;;;;;27.21;44.65;99403.42;1754566;80;21522;-60
2022/06/13 07:17:01;;;;;;;4.87;3.60;;;;;;;27.32;43.99;99408.44;1764533;80;21545;-66
2022/06/13 07:19:29;;;;;;;7.40;4.05;;;;;;;27.38;44.12;99409.58;1752677;80;21800;-62
2022/06/13 07:21:56;;;;;;;4.67;3.60;;;;;;;27.40;44.65;99408.05;1767087;80;21183;-64
2022/06/13 07:24:23;;;;;;;5.87;3.10;;;;;;;27.43;44.41;99403.66;1764661;80;21815;-64
2022/06/13 07:26:50;;;;;;;3.40;3.10;;;;;;;27.48;44.68;99408.84;1759632;80;21497;-62
2022/06/13 07:29:18;;;;;;;4.80;2.95;;;;;;;27.54;44.16;99408.11;1756980;80;21506;-61
2022/06/13 07:31:54;;;;;;;3.70;3.22;;;;;;;27.64;43.47;99411.08;1767884;80;21900;-60
2022/06/13 07:34:22;;;;;;;5.72;3.30;;;;;;;27.69;43.27;99418.09;1760535;80;21537;-61
2022/06/13 07:36:50;;;;;;;4.33;3.17;;;;;;;27.76;43.76;99418.56;1764823;80;21049;-60
2022/06/13 07:39:17;;;;;;;3.75;3.00;;;;;;;27.86;43.53;99414.25;1764012;79;21529;-67
2022/06/13 07:41:44;;;;;;;2.90;2.70;;;;;;;27.96;42.12;99412.66;1762574;80;21538;-65
2022/06/13 07:44:19;;;;;;;4.00;2.67;;;;;;;28.03;41.50;99416.80;1760280;80;21983;-66
2022/06/13 07:46:46;;;;;;;3.67;3.37;;;;;;;28.03;40.91;99410.91;1767263;80;21049;-66
2022/06/13 07:49:14;;;;;;;5.33;2.60;;;;;;;28.08;40.66;99419.28;1760214;80;21566;-69
2022/06/13 07:51:41;;;;;;;3.20;3.00;;;;;;;28.05;41.22;99412.05;1762878;80;21455;-68
2022/06/13 07:54:07;;;;;;;4.90;3.67;;;;;;;28.05;40.82;99418.80;1704073;83;21513;-65
2022/06/13 07:56:34;;;;;;;4.60;3.27;;;;;;;28.09;41.63;99415.56;1712627;82;21608;-66
2022/06/13 07:59:02;;;;;;;;;;;;;;;28.07;41.63;99418.14;1707309;83;21517;-66
2022/06/13 08:01:29;;;;;;;3.33;3.08;;;;;;;28.01;42.10;99414.31;1716552;81;20419;-67
2022/06/13 08:03:56;;;;;;;3.05;2.85;;;;;;;27.94;42.08;99414.72;1753090;80;21511;-68
2022/06/13 08:06:23;;;;;;;3.50;3.27;;;;;;;27.95;42.24;99404.22;1754021;80;21439;-66
2022/06/13 08:08:50;;;;;;;3.12;2.90;;;;;;;28.02;41.57;99406.52;1760891;80;21792;-65
2022/06/13 08:11:35;;;;;;;5.10;2.90;;;;;;;27.96;41.77;99397.80;1756480;80;28513;-66
2022/06/13 08:14:01;;;;;;;3.40;3.10;;;;;;;27.98;41.84;99397.11;1757283;80;21523;-67
2022/06/13 08:16:30;;;;;;;3.67;2.70;;;;;;;28.06;41.85;99406.47;1766682;80;20986;-66
2022/06/13 08:18:57;;;;;;;3.75;2.98;;;;;;;28.09;41.51;99399.87;1755562;80;21624;-66
2022/06/13 08:21:24;;;;;;;4.22;2.98;;;;;;;28.13;41.62;99399.83;1758636;80;21556;-67
2022/06/13 08:23:52;;;;;;;3.12;2.92;;;;;;;28.18;41.11;99393.85;1747215;80;21467;-66
2022/06/13 08:26:18;;;;;;;4.58;2.60;;;;;;;28.24;40.99;99393.95;1751100;80;21529;-66
2022/06/13 08:28:45;;;;;;;2.62;2.42;;;;;;;28.37;40.41;99396.51;1753962;80;21569;-67
2022/06/13 08:31:13;;;;;;;2.93;2.57;;;;;;;28.38;39.37;99394.14;1764650;80;21510;-67
2022/06/13 08:33:40;;;;;;;2.70;2.45;;;;;;;28.38;39.37;99394.14;1748931;80;21927;-67
2022/06/13 08:36:08;;;;;;;3.02;2.77;;;;;;;28.45;39.81;99391.85;1756708;80;21604;-67
2022/06/13 08:38:34;;;;;;;6.50;2.60;;;;;;;28.55;39.00;99386.18;1760161;80;21569;-66
2022/06/13 08:41:13;;;;;;;3.35;3.05;;;;;;;28.64;38.95;99383.70;1758000;80;21566;-65
2022/06/13 08:44:10;;;;;;;3.05;2.80;;;;;;;28.82;38.67;99386.50;1765655;80;21447;-65
2022/06/13 08:47:04;;;;;;;2.58;2.45;;;;;;;29.01;38.60;99388.62;1759545;80;21668;-67
2022/06/13 08:49:44;;;;;;;2.33;2.20;;;;;;;29.11;38.17;99385.59;1759596;80;21561;-64
2022/06/13 08:52:39;;;;;;;3.70;2.22;;;;;;;29.22;37.80;99380.22;1747652;80;21502;-63
2022/06/13 08:55:16;;;;;;;5.65;2.55;;;;;;;29.34;38.32;99382.72;1745746;80;21455;-64
2022/06/13 09:00:43;;;;;;;2.33;2.10;;;;;;;29.56;36.46;99374.08;1633346;85;21819;-63
2022/06/13 09:03:18;;;;;;;2.75;2.22;;;;;;;29.66;36.95;99366.96;1634925;86;21595;-64
2022/06/13 09:06:02;;;;;;;4.35;2.40;;;;;;;29.80;36.12;99363.86;1633332;86;21536;-64
2022/06/13 09:08:37;;;;;;;2.22;2.12;;;;;;;29.99;36.10;99367.24;1627037;86;21548;-65
2022/06/13 09:11:34;;;;;;;3.40;1.95;;;;;;;30.18;35.82;99366.22;1568885;87;21074;-62
2022/06/13 09:14:09;;;;;;;7.03;2.37;;;;;;;30.30;35.29;99361.06;1606083;87;21899;-60
2022/06/13 09:16:36;;;;;;;4.08;2.15;;;;;;;30.34;35.50;99353.69;1578812;89;21637;-64
2022/06/13 09:19:54;;;;;;;4.10;2.27;;;;;;;30.32;35.41;99358.98;1604776;87;21610;-65
2022/06/13 09:22:29;;;;;;;3.35;2.40;;;;;;;30.14;35.24;99355.42;1577713;89;21572;-62
2022/06/13 09:25:11;;;;;;;4.55;2.17;;;;;;;30.01;35.21;99354.85;1636106;85;21460;-61
2022/06/13 09:27:54;;;;;;;5.65;2.55;;;;;;;30.10;35.67;99354.98;1633852;85;22231;-62
2022/06/13 09:30:28;;;;;;;2.87;2.12;;;;;;;30.14;35.08;99357.64;1636171;86;21801;-63
2022/06/13 09:32:59;;;;;;;3.12;2.10;;;;;;;30.02;35.47;99353.80;1697349;82;21572;-65
2022/06/13 09:35:33;;;;;;;3.92;2.08;;;;;;;29.90;35.64;99354.88;1697309;82;21437;-65
2022/06/13 09:38:18;;;;;;;3.20;2.22;;;;;;;29.84;36.24;99361.92;1707423;83;21536;-63
2022/06/13 09:40:50;;;;;;;3.08;2.08;;;;;;;29.72;36.12;99359.39;1681989;82;21850;-64
2022/06/13 09:43:46;;;;;;;3.80;2.25;;;;;;;29.61;35.46;99353.16;1695236;83;21025;-62
2022/06/13 09:46:56;;;;;;;4.15;2.55;;;;;;;29.69;35.61;99353.86;1700867;82;21444;-65
2022/06/13 09:49:36;;;;;;;3.00;2.17;;;;;;;29.88;35.94;99352.36;1696113;83;21576;-65
2022/06/13 09:52:31;;;;;;;2.20;2.10;;;;;;;30.07;35.01;99351.34;1696243;82;21549;-63
2022/06/13 09:55:16;;;;;;;2.20;2.00;;;;;;;30.20;35.04;99345.16;1696401;82;21888;-60
2022/06/13 09:58:07;;;;;;;2.15;1.95;;;;;;;30.37;34.49;99342.98;1698772;82;21457;-59
2022/06/13 10:01:03;;;;;;;3.62;2.05;;;;;;;30.51;33.25;99336.56;1698941;82;21607;-59
2022/06/13 10:03:47;;;;;;;3.17;1.90;;;;;;;30.71;32.37;99343.42;1695261;83;21497;-62
2022/06/13 10:06:25;;;;;;;3.00;2.10;;;;;;;30.94;33.21;99342.27;1695137;82;21656;-62
2022/06/13 10:09:28;;;;;;;2.70;1.90;;;;;;;31.08;33.15;99338.55;1661241;84;21790;-61
2022/06/13 10:12:26;;;;;;;3.62;2.55;;;;;;;31.03;32.42;99332.89;1661016;84;21501;-60
2022/06/13 10:15:07;;;;;;;2.50;2.25;;;;;;;31.16;32.30;99325.29;1659326;84;21558;-63
2022/06/13 10:18:07;;;;;;;3.62;3.27;;;;;;;31.12;32.31;99323.51;1657474;85;21639;-64
2022/06/13 10:21:01;;;;;;;3.80;2.22;;;;;;;30.94;31.90;99325.98;1663554;85;21679;-63
2022/06/13 10:23:49;;;;;;;3.25;2.00;;;;;;;30.71;32.48;99332.57;1661533;85;21975;-64
2022/06/13 10:26:22;;;;;;;2.72;2.00;;;;;;;30.46;32.50;99327.69;1655907;85;21544;-64
2022/06/13 10:29:19;;;;;;;3.40;2.40;;;;;;;30.28;32.79;99321.41;1659769;84;21588;-64
2022/06/13 10:32:04;;;;;;;4.45;2.10;;;;;;;30.19;33.33;99325.85;1696520;82;21434;-66
2022/06/13 10:34:52;;;;;;;3.65;2.45;;;;;;;30.06;34.32;99328.83;1692439;83;21046;-65
2022/06/13 10:37:27;;;;;;;5.72;2.47;;;;;;;29.91;34.81;99324.55;1687544;83;21851;-63
2022/06/13 10:39:57;;;;;;;6.20;2.50;;;;;;;29.82;35.06;99327.42;1694990;82;21580;-64
2022/06/13 10:42:27;;;;;;;5.15;2.90;;;;;;;29.80;35.31;99335.41;1686179;82;21534;-63
2022/06/13 10:44:53;;;;;;;2.65;2.35;;;;;;;29.73;35.82;99330.45;1694926;83;21530;-63
2022/06/13 10:47:41;;;;;;;2.52;2.25;;;;;;;29.68;36.14;99321.55;1693920;83;20997;-65
2022/06/13 10:50:12;;;;;;;3.47;2.27;;;;;;;29.67;35.96;99326.66;1691414;84;21781;-63
2022/06/13 10:52:43;;;;;;;2.98;2.30;;;;;;;29.69;35.07;99320.53;1697208;82;21525;-63
2022/06/13 10:55:12;;;;;;;2.27;2.17;;;;;;;29.64;35.33;99322.98;1693632;82;21002;-63
2022/06/13 10:57:49;;;;;;;2.62;2.42;;;;;;;29.60;36.42;99317.64;1693386;82;21398;-64
2022/06/13 11:00:26;;;;;;;4.95;2.62;;;;;;;29.62;35.91;99316.92;1705468;82;21513;-63
2022/06/13 11:02:52;;;;;;;2.15;1.95;;;;;;;29.62;35.53;99309.63;1698950;83;21731;-63
2022/06/13 11:05:25;;;;;;;2.60;2.40;;;;;;;29.62;36.07;99315.58;1676646;82;21581;-64
2022/06/13 11:07:58;;;;;;;4.05;2.60;;;;;;;29.62;36.66;99315.58;1702494;82;20949;-69
2022/06/13 11:10:39;;;;;;;2.83;2.58;;;;;;;29.65;36.17;99313.84;1667025;84;21041;-65
2022/06/13 11:13:17;;;;;;;2.50;2.40;;;;;;;29.68;35.74;99314.78;1663577;84;21569;-65
2022/06/13 11:24:48;;;;;;;4.67;2.30;;;;;;;29.75;34.66;99297.26;1644168;85;21575;-63
2022/06/13 11:27:40;;;;;;;3.20;2.33;;;;;;;29.76;35.53;99294.85;1667859;84;21632;-65
2022/06/13 11:30:29;;;;;;;2.50;2.30;;;;;;;29.84;35.40;99299.61;1666327;84;21877;-63
2022/06/13 11:33:08;;;;;;;5.72;2.30;;;;;;;29.87;35.39;99297.83;1664865;84;21599;-64
2022/06/13 11:35:46;;;;;;;2.37;2.17;;;;;;;29.89;35.07;99294.44;1670218;84;21608;-62
2022/06/13 11:38:32;;;;;;;2.37;2.17;;;;;;;29.96;34.57;99294.98;1667602;84;21570;-63
2022/06/13 11:41:24;;;;;;;3.05;2.15;;;;;;;29.98;34.28;99297.80;1668850;84;21655;-63
2022/06/13 11:44:15;;;;;;;5.58;2.27;;;;;;;29.94;33.79;99296.53;1647687;84;23039;-61
2022/06/13 11:46:46;;;;;;;3.25;2.50;;;;;;;29.92;33.48;99297.78;1667291;84;21072;-62
2022/06/13 11:49:22;;;;;;;2.58;2.37;;;;;;;29.93;33.98;99290.78;1639149;85;21592;-65
2022/06/13 11:52:02;;;;;;;3.25;2.25;;;;;;;29.94;34.15;99288.41;1666421;85;21610;-62
2022/06/13 11:54:51;;;;;;;2.45;2.25;;;;;;;30.00;33.18;99278.11;1665575;84;21506;-63
2022/06/13 11:57:34;;;;;;;2.25;2.05;;;;;;;30.05;34.00;99278.88;1660965;84;21858;-63
2022/06/13 12:00:18;;;;;;;2.85;2.22;;;;;;;30.07;34.28;99283.05;1663565;85;21557;-63
2022/06/13 12:02:53;;;;;;;3.20;2.22;;;;;;;30.01;34.50;99280.32;1650491;85;21580;-62
2022/06/13 12:05:33;;;;;;;3.50;2.52;;;;;;;30.01;35.18;99277.61;1638415;85;21668;-62
2022/06/13 12:08:20;;;;;;;3.00;2.50;;;;;;;30.01;35.45;99277.61;1618848;87;21564;-62
2022/06/13 12:11:10;;;;;;;3.22;2.47;;;;;;;29.96;35.19;99269.23;1640126;85;21739;-62
2022/06/13 12:13:41;;;;;;;3.62;2.67;;;;;;;29.99;35.88;99266.11;1640429;85;21751;-62
2022/06/13 12:16:50;;;;;;;2.65;2.55;;;;;;;29.92;36.37;99263.38;1659227;84;20962;-62
2022/06/13 12:19:36;;;;;;;3.67;2.52;;;;;;;29.90;36.86;99264.10;1651770;85;20982;-63
2022/06/13 12:22:14;;;;;;;4.00;2.52;;;;;;;29.90;36.74;99260.04;1653859;85;21561;-62
2022/06/13 12:24:47;;;;;;;6.03;2.60;;;;;;;29.94;36.09;99255.89;1652993;85;22028;-62
2022/06/13 12:27:25;;;;;;;2.72;2.12;;;;;;;29.94;35.60;99253.17;1658629;84;21515;-63
2022/06/13 12:30:36;;;;;;;4.87;2.33;;;;;;;29.98;35.67;99253.08;1652658;84;21716;-62
2022/06/13 12:33:25;;;;;;;3.77;2.40;;;;;;;30.12;35.92;99248.58;1652833;85;21450;-63
2022/06/13 12:36:13;;;;;;;2.72;2.42;;;;;;;30.43;34.31;99248.08;1653530;85;21790;-63
2022/06/13 12:39:11;;;;;;;11.22;2.60;;;;;;;30.62;33.88;99245.09;1654393;85;21581;-64
2022/06/13 12:41:44;;;;;;;2.02;1.92;;;;;;;30.88;33.94;99240.76;1655424;85;21021;-64
2022/06/13 12:44:45;;;;;;;4.05;2.40;;;;;;;31.14;32.52;99238.61;1650423;84;21502;-64